Time;durP1;ratioP1;P1;durP2;ratioP2;P2;SDS_P1;SDS_P2;PMS_P1;PMS_P2;Temp;Humidity;BMP_temperature;BMP_pressure;BME280_temperature;BME280_humidity;BME280_pressure;Samples;Min_cycle;Max_cycle;Signal;HPM_P1;HPM_P2
2022/09/11 00:00:32;;;;;;;7.72;4.97;;;;;;;;;;5006906;28;20029;-69
2022/09/11 00:02:57;;;;;;;8.43;5.22;;;;;;;;;;5005820;28;20435;-70
2022/09/11 00:05:24;;;;;;;18.05;5.75;;;;;;;;;;5005978;28;20436;-70
2022/09/11 00:07:50;;;;;;;13.38;5.72;;;;;;;;;;5005556;28;20462;-69
2022/09/11 00:10:16;;;;;;;11.85;5.35;;;;;;;;;;5006535;28;20427;-70
2022/09/11 00:12:42;;;;;;;17.50;6.45;;;;;;;;;;5003699;28;20075;-71
2022/09/11 00:15:07;;;;;;;12.50;5.60;;;;;;;;;;5006132;28;20111;-70
2022/09/11 00:17:33;;;;;;;12.48;6.20;;;;;;;;;;5004348;28;20390;-70
2022/09/11 00:19:59;;;;;;;10.52;5.80;;;;;;;;;;5005393;28;20429;-69
2022/09/11 00:22:26;;;;;;;13.77;6.07;;;;;;;;;;4971135;28;20342;-70
2022/09/11 00:24:51;;;;;;;9.65;5.88;;;;;;;;;;5005783;28;20527;-70
2022/09/11 00:27:16;;;;;;;10.68;7.03;;;;;;;;;;5020608;28;20034;-70
2022/09/11 00:29:42;;;;;;;8.18;4.80;;;;;;;;;;5005836;28;20435;-69
2022/09/11 00:32:08;;;;;;;9.07;5.95;;;;;;;;;;5006958;28;20514;-69
2022/09/11 00:34:33;;;;;;;11.18;5.70;;;;;;;;;;5005337;28;20482;-70
2022/09/11 00:36:59;;;;;;;10.85;6.35;;;;;;;;;;5005423;28;20435;-70
2022/09/11 00:39:24;;;;;;;12.50;5.72;;;;;;;;;;5003637;28;20047;-70
2022/09/11 00:41:49;;;;;;;9.18;5.18;;;;;;;;;;4987281;28;20454;-70
2022/09/11 00:44:15;;;;;;;10.15;5.40;;;;;;;;;;5006691;28;20070;-70
2022/09/11 00:46:45;;;;;;;8.55;5.18;;;;;;;;;;5005019;28;20404;-70
2022/09/11 00:49:19;;;;;;;15.25;5.95;;;;;;;;;;5005053;28;20382;-70
2022/09/11 00:51:47;;;;;;;13.05;5.85;;;;;;;;;;5005008;28;20440;-70
2022/09/11 00:54:15;;;;;;;10.70;6.07;;;;;;;;;;5005151;28;20463;-70
2022/09/11 00:56:42;;;;;;;9.30;5.53;;;;;;;;;;4986747;28;20451;-70
2022/09/11 00:59:07;;;;;;;10.88;5.70;;;;;;;;;;5004894;28;20082;-70
2022/09/11 01:01:33;;;;;;;12.55;6.10;;;;;;;;;;4988221;28;20443;-70
2022/09/11 01:04:02;;;;;;;7.32;5.18;;;;;;;;;;5015015;28;20429;-70
2022/09/11 01:06:27;;;;;;;;;;;;;;;;;;4987050;28;20379;-71
2022/09/11 01:08:52;;;;;;;12.53;6.07;;;;;;;;;;4986758;28;19944;-70
2022/09/11 01:12:08;;;;;;;13.20;6.68;;;;;;;;;;5005268;28;20554;-71
2022/09/11 01:14:52;;;;;;;12.82;6.88;;;;;;;;;;4953083;28;20451;-70
2022/09/11 01:17:33;;;;;;;14.48;8.05;;;;;;;;;;5004285;28;20409;-70
2022/09/11 01:20:35;;;;;;;16.60;8.25;;;;;;;;;;5004372;28;20510;-71
2022/09/11 01:23:19;;;;;;;13.13;7.95;;;;;;;;;;5004291;28;20385;-70
2022/09/11 01:26:03;;;;;;;14.75;6.45;;;;;;;;;;5005935;28;20504;-70
2022/09/11 01:28:38;;;;;;;14.10;7.78;;;;;;;;;;5004375;28;20024;-70
2022/09/11 01:31:09;;;;;;;16.58;8.85;;;;;;;;;;4986429;28;20450;-70
2022/09/11 01:34:21;;;;;;;16.25;8.10;;;;;;;;;;4986248;28;20321;-70
2022/09/11 01:36:58;;;;;;;16.10;6.82;;;;;;;;;;4891288;28;20492;-70
2022/09/11 01:39:29;;;;;;;14.25;7.60;;;;;;;;;;4982340;28;20325;-70
2022/09/11 01:42:02;;;;;;;13.55;7.32;;;;;;;;;;5006214;28;20111;-70
2022/09/11 01:44:35;;;;;;;15.95;7.90;;;;;;;;;;4985892;28;20098;-69
2022/09/11 01:47:03;;;;;;;17.20;8.65;;;;;;;;;;4986182;28;20331;-69
2022/09/11 01:49:34;;;;;;;19.50;8.65;;;;;;;;;;4986280;28;20386;-69
2022/09/11 01:52:02;;;;;;;14.77;7.82;;;;;;;;;;4985751;28;20427;-70
2022/09/11 01:54:32;;;;;;;14.10;8.68;;;;;;;;;;4985715;28;20051;-70
2022/09/11 01:57:05;;;;;;;14.48;7.85;;;;;;;;;;4985436;28;20455;-69
2022/09/11 01:59:41;;;;;;;16.30;8.45;;;;;;;;;;4985427;28;20522;-70
2022/09/11 02:02:10;;;;;;;13.98;9.05;;;;;;;;;;5003857;28;20435;-70
2022/09/11 02:04:40;;;;;;;15.30;8.55;;;;;;;;;;4985950;28;20343;-71
2022/09/11 02:07:16;;;;;;;18.58;8.13;;;;;;;;;;5004341;28;20423;-69
2022/09/11 02:09:53;;;;;;;16.10;8.68;;;;;;;;;;4985845;28;20736;-69
2022/09/11 02:12:20;;;;;;;21.35;9.75;;;;;;;;;;4978450;28;20410;-69
2022/09/11 02:14:48;;;;;;;19.33;8.30;;;;;;;;;;4966383;28;20036;-70
2022/09/11 02:17:23;;;;;;;15.83;8.77;;;;;;;;;;4966194;28;20391;-69
2022/09/11 02:19:50;;;;;;;15.52;9.10;;;;;;;;;;4965803;28;20060;-71
2022/09/11 02:22:15;;;;;;;22.92;8.65;;;;;;;;;;4966490;28;20029;-70
2022/09/11 02:24:40;;;;;;;17.40;8.82;;;;;;;;;;4965831;28;20470;-70
2022/09/11 02:27:09;;;;;;;14.77;8.35;;;;;;;;;;4983633;28;20694;-70
2022/09/11 02:29:35;;;;;;;;;;;;;;;;;;4966910;28;20137;-70
2022/09/11 02:32:02;;;;;;;14.80;8.63;;;;;;;;;;4965513;28;19913;-70
2022/09/11 02:34:33;;;;;;;16.60;7.80;;;;;;;;;;4966164;28;20029;-70
2022/09/11 02:37:07;;;;;;;16.02;8.57;;;;;;;;;;4949494;28;20394;-70
2022/09/11 02:39:43;;;;;;;15.88;8.60;;;;;;;;;;4983775;28;20451;-70
2022/09/11 02:42:27;;;;;;;14.50;7.95;;;;;;;;;;4965551;28;20432;-70
2022/09/11 02:45:18;;;;;;;13.98;8.95;;;;;;;;;;4983487;28;20444;-70
2022/09/11 02:48:05;;;;;;;13.43;7.70;;;;;;;;;;4983497;28;20363;-70
2022/09/11 02:51:20;;;;;;;11.73;7.70;;;;;;;;;;4983081;28;20048;-69
2022/09/11 02:53:54;;;;;;;11.63;7.00;;;;;;;;;;4929035;28;20448;-69
2022/09/11 02:56:31;;;;;;;10.48;6.30;;;;;;;;;;4983216;28;20440;-70
2022/09/11 02:59:11;;;;;;;10.48;6.65;;;;;;;;;;4949253;28;20355;-70
2022/09/11 03:01:48;;;;;;;13.82;7.45;;;;;;;;;;4965490;28;20538;-70
2022/09/11 03:04:14;;;;;;;13.40;6.93;;;;;;;;;;4965469;28;20375;-70
2022/09/11 03:06:42;;;;;;;10.52;7.13;;;;;;;;;;4966577;28;20344;-70
2022/09/11 03:09:11;;;;;;;8.63;5.65;;;;;;;;;;4987729;28;20308;-70
2022/09/11 03:11:37;;;;;;;10.75;5.78;;;;;;;;;;4987920;28;20055;-69
2022/09/11 03:14:02;;;;;;;9.07;5.95;;;;;;;;;;5007001;28;20443;-70
2022/09/11 03:16:28;;;;;;;8.27;5.07;;;;;;;;;;5007867;28;20358;-70
2022/09/11 03:18:53;;;;;;;7.07;5.03;;;;;;;;;;5006711;28;20510;-70
2022/09/11 03:21:19;;;;;;;9.00;4.90;;;;;;;;;;4989149;28;20526;-70
2022/09/11 03:23:44;;;;;;;8.27;5.13;;;;;;;;;;5007553;28;20470;-71
2022/09/11 03:26:09;;;;;;;10.20;4.97;;;;;;;;;;5008130;28;20510;-69
2022/09/11 03:28:35;;;;;;;7.25;4.20;;;;;;;;;;5006379;28;20526;-70
2022/09/11 03:31:00;;;;;;;6.72;4.53;;;;;;;;;;5007347;28;20331;-71
2022/09/11 03:33:26;;;;;;;8.07;4.53;;;;;;;;;;5006531;28;20037;-71
2022/09/11 03:35:52;;;;;;;7.90;4.80;;;;;;;;;;5006615;28;20505;-70
2022/09/11 03:38:18;;;;;;;7.15;4.88;;;;;;;;;;5006328;28;20417;-70
2022/09/11 03:40:44;;;;;;;6.13;4.32;;;;;;;;;;4989079;28;20431;-70
2022/09/11 03:43:10;;;;;;;6.85;4.47;;;;;;;;;;5006473;28;20342;-69
2022/09/11 03:45:36;;;;;;;9.27;4.85;;;;;;;;;;4989406;28;20514;-70
2022/09/11 03:48:01;;;;;;;10.00;4.20;;;;;;;;;;5007142;28;20412;-70
2022/09/11 03:50:26;;;;;;;7.15;4.47;;;;;;;;;;5007442;28;20583;-69
2022/09/11 03:52:52;;;;;;;7.13;4.97;;;;;;;;;;5006040;28;20024;-70
2022/09/11 03:55:18;;;;;;;8.40;4.93;;;;;;;;;;4988058;28;20354;-70
2022/09/11 03:57:43;;;;;;;7.50;4.25;;;;;;;;;;4987939;28;20470;-70
2022/09/11 04:00:09;;;;;;;7.82;5.00;;;;;;;;;;5006696;28;20055;-70
2022/09/11 04:02:34;;;;;;;7.00;4.70;;;;;;;;;;5006779;28;20339;-71
2022/09/11 04:05:01;;;;;;;5.78;4.40;;;;;;;;;;4988222;28;20443;-70
2022/09/11 04:07:26;;;;;;;6.25;4.28;;;;;;;;;;4987949;28;20597;-70
2022/09/11 04:09:51;;;;;;;5.88;4.07;;;;;;;;;;5006464;28;20327;-70
2022/09/11 04:12:17;;;;;;;5.85;3.63;;;;;;;;;;4980977;28;20472;-70
2022/09/11 04:14:43;;;;;;;4.53;3.53;;;;;;;;;;4985868;28;20490;-70
2022/09/11 04:17:08;;;;;;;4.72;3.75;;;;;;;;;;4985857;28;20339;-70
2022/09/11 04:19:34;;;;;;;7.07;3.72;;;;;;;;;;4966983;28;20091;-70
2022/09/11 04:21:59;;;;;;;5.85;3.72;;;;;;;;;;4985460;28;20099;-70
2022/09/11 04:24:24;;;;;;;8.65;5.00;;;;;;;;;;4967885;28;20028;-70
2022/09/11 04:26:50;;;;;;;5.40;3.72;;;;;;;;;;4986403;28;20451;-70
2022/09/11 04:29:16;;;;;;;6.35;3.85;;;;;;;;;;4968568;28;20565;-69
2022/09/11 04:31:42;;;;;;;5.78;3.95;;;;;;;;;;4967937;28;20436;-70
2022/09/11 04:34:08;;;;;;;6.32;4.03;;;;;;;;;;4968124;28;20348;-69
2022/09/11 04:36:34;;;;;;;7.55;3.70;;;;;;;;;;4967800;28;20095;-70
2022/09/11 04:38:59;;;;;;;8.07;4.43;;;;;;;;;;4967756;28;20368;-69
2022/09/11 04:41:25;;;;;;;7.13;3.90;;;;;;;;;;4985585;28;20121;-69
2022/09/11 04:43:55;;;;;;;8.02;3.42;;;;;;;;;;4987127;28;20442;-70
2022/09/11 04:46:20;;;;;;;6.25;3.97;;;;;;;;;;4967656;28;20392;-70
2022/09/11 04:48:47;;;;;;;8.75;4.18;;;;;;;;;;4967387;28;20326;-71
2022/09/11 04:51:21;;;;;;;7.18;4.05;;;;;;;;;;4968015;28;20525;-71
2022/09/11 04:53:47;;;;;;;6.20;4.25;;;;;;;;;;4967217;28;20429;-70
2022/09/11 04:56:12;;;;;;;7.25;4.20;;;;;;;;;;4985106;28;20494;-69
2022/09/11 04:58:38;;;;;;;7.20;4.22;;;;;;;;;;4967393;28;20478;-71
2022/09/11 05:01:07;;;;;;;6.93;4.28;;;;;;;;;;4967268;28;20501;-70
2022/09/11 05:03:33;;;;;;;9.90;4.68;;;;;;;;;;4967236;28;20432;-69
2022/09/11 05:06:03;;;;;;;7.75;4.05;;;;;;;;;;4967116;28;20321;-70
2022/09/11 05:08:29;;;;;;;8.13;3.63;;;;;;;;;;4984656;28;20515;-70
2022/09/11 05:10:54;;;;;;;8.90;4.10;;;;;;;;;;4984955;28;20446;-70
2022/09/11 05:13:20;;;;;;;6.55;4.30;;;;;;;;;;4999416;28;20464;-71
2022/09/11 05:15:46;;;;;;;9.55;4.47;;;;;;;;;;5004548;28;20051;-70
2022/09/11 05:18:11;;;;;;;5.72;3.83;;;;;;;;;;5005858;28;20040;-70
2022/09/11 05:20:38;;;;;;;8.65;4.22;;;;;;;;;;5004492;28;20081;-71
2022/09/11 05:23:03;;;;;;;7.65;4.38;;;;;;;;;;5005090;28;20305;-70
2022/09/11 05:25:30;;;;;;;8.82;4.35;;;;;;;;;;5004679;28;20382;-70
2022/09/11 05:27:56;;;;;;;6.40;4.25;;;;;;;;;;4986894;28;20450;-71
2022/09/11 05:30:21;;;;;;;7.65;4.38;;;;;;;;;;4986012;28;20510;-70
2022/09/11 05:32:47;;;;;;;13.00;4.15;;;;;;;;;;4986598;28;20466;-70
2022/09/11 05:35:12;;;;;;;6.75;4.20;;;;;;;;;;4986378;28;20495;-71
2022/09/11 05:37:37;;;;;;;7.00;3.95;;;;;;;;;;4986203;28;20346;-70
2022/09/11 05:40:03;;;;;;;5.95;3.90;;;;;;;;;;5004605;28;20339;-71
2022/09/11 05:42:28;;;;;;;7.80;4.47;;;;;;;;;;5004004;28;20111;-71
2022/09/11 05:44:54;;;;;;;9.50;4.82;;;;;;;;;;5005292;28;20396;-70
2022/09/11 05:47:19;;;;;;;5.93;3.50;;;;;;;;;;5003762;28;20354;-71
2022/09/11 05:49:45;;;;;;;11.60;4.15;;;;;;;;;;5003943;28;20024;-71
2022/09/11 05:52:10;;;;;;;7.00;3.65;;;;;;;;;;5003858;28;20350;-71
2022/09/11 05:54:35;;;;;;;4.55;3.92;;;;;;;;;;5004325;28;20486;-71
2022/09/11 05:57:01;;;;;;;5.72;4.03;;;;;;;;;;5003724;28;20104;-70
2022/09/11 05:59:27;;;;;;;6.72;4.53;;;;;;;;;;4986548;28;20473;-71
2022/09/11 06:01:53;;;;;;;7.70;4.63;;;;;;;;;;5003654;28;20375;-70
2022/09/11 06:04:18;;;;;;;7.72;4.78;;;;;;;;;;5003683;28;20051;-70
2022/09/11 06:06:46;;;;;;;7.07;4.57;;;;;;;;;;5003646;28;20389;-71
2022/09/11 06:09:12;;;;;;;10.18;4.25;;;;;;;;;;4986146;28;20508;-70
2022/09/11 06:11:37;;;;;;;4.15;3.42;;;;;;;;;;4985917;28;20450;-71
2022/09/11 06:14:02;;;;;;;5.65;3.95;;;;;;;;;;5003474;28;20473;-70
2022/09/11 06:16:30;;;;;;;6.97;3.95;;;;;;;;;;4985630;28;20068;-70
2022/09/11 06:18:56;;;;;;;7.38;4.00;;;;;;;;;;4986085;28;20413;-70
2022/09/11 06:21:23;;;;;;;5.88;4.00;;;;;;;;;;4985749;28;20498;-70
2022/09/11 06:23:50;;;;;;;5.22;4.30;;;;;;;;;;4985224;28;20446;-70
2022/09/11 06:26:18;;;;;;;4.82;3.20;;;;;;;;;;5003375;28;20381;-71
2022/09/11 06:28:43;;;;;;;3.63;2.92;;;;;;;;;;4985726;28;20028;-71
2022/09/11 06:31:11;;;;;;;4.63;3.47;;;;;;;;;;5003790;28;20052;-71
2022/09/11 06:33:38;;;;;;;4.05;3.35;;;;;;;;;;4986186;28;20420;-70
2022/09/11 06:36:06;;;;;;;8.63;4.68;;;;;;;;;;5003610;28;20109;-71
2022/09/11 06:38:31;;;;;;;6.83;3.97;;;;;;;;;;5004083;28;20374;-71
2022/09/11 06:41:01;;;;;;;5.57;3.35;;;;;;;;;;4985281;28;20060;-70
2022/09/11 06:43:26;;;;;;;7.25;3.53;;;;;;;;;;4989108;28;20787;-70
2022/09/11 06:45:52;;;;;;;6.38;2.97;;;;;;;;;;5009327;28;20166;-71
2022/09/11 06:48:18;;;;;;;4.13;2.95;;;;;;;;;;5007178;28;20043;-70
2022/09/11 06:50:43;;;;;;;5.28;3.40;;;;;;;;;;5007524;28;20608;-70
2022/09/11 06:53:10;;;;;;;3.80;3.00;;;;;;;;;;5007315;28;20343;-70
2022/09/11 06:55:36;;;;;;;11.70;3.03;;;;;;;;;;5008196;28;20497;-70
2022/09/11 06:58:01;;;;;;;4.15;3.05;;;;;;;;;;4989359;28;20459;-70
2022/09/11 07:00:27;;;;;;;5.68;2.80;;;;;;;;;;4988974;28;20347;-71
2022/09/11 07:02:53;;;;;;;4.22;2.90;;;;;;;;;;5007084;28;20416;-71
2022/09/11 07:05:21;;;;;;;5.43;2.72;;;;;;;;;;4988969;28;20048;-71
2022/09/11 07:07:47;;;;;;;4.97;2.70;;;;;;;;;;4989438;28;20605;-70
2022/09/11 07:10:12;;;;;;;5.00;2.60;;;;;;;;;;4989187;28;20342;-71
2022/09/11 07:12:38;;;;;;;4.10;3.17;;;;;;;;;;4979262;28;20049;-70
2022/09/11 07:15:07;;;;;;;4.80;2.90;;;;;;;;;;4987203;28;20391;-70
2022/09/11 07:17:32;;;;;;;4.28;2.88;;;;;;;;;;4969036;28;20029;-71
2022/09/11 07:19:58;;;;;;;5.10;2.97;;;;;;;;;;4987861;28;20419;-71
2022/09/11 07:22:23;;;;;;;4.30;3.03;;;;;;;;;;4986913;28;20413;-71
2022/09/11 07:24:49;;;;;;;5.97;3.05;;;;;;;;;;4987071;28;20439;-71
2022/09/11 07:27:15;;;;;;;5.95;3.10;;;;;;;;;;4987352;28;20621;-71
2022/09/11 07:29:40;;;;;;;7.75;3.78;;;;;;;;;;4989043;28;20479;-71
2022/09/11 07:32:06;;;;;;;5.05;3.47;;;;;;;;;;4989036;28;20032;-71
2022/09/11 07:34:31;;;;;;;7.38;4.05;;;;;;;;;;4986763;28;20313;-72
2022/09/11 07:36:56;;;;;;;6.20;4.03;;;;;;;;;;4953161;28;20514;-72
2022/09/11 07:39:22;;;;;;;5.95;3.67;;;;;;;;;;4986724;28;20325;-71
2022/09/11 07:41:48;;;;;;;6.40;4.20;;;;;;;;;;4986700;28;20439;-71
2022/09/11 07:44:15;;;;;;;3.72;3.33;;;;;;;;;;4986676;28;20460;-71
2022/09/11 07:46:40;;;;;;;4.75;3.33;;;;;;;;;;4987015;28;20443;-72
2022/09/11 07:49:08;;;;;;;3.85;2.80;;;;;;;;;;4968349;28;20479;-71
2022/09/11 07:51:35;;;;;;;5.05;3.10;;;;;;;;;;4968895;28;20028;-71
2022/09/11 07:54:00;;;;;;;5.68;3.00;;;;;;;;;;4986468;28;20037;-71
2022/09/11 07:56:27;;;;;;;4.07;3.25;;;;;;;;;;4952125;28;20454;-71
2022/09/11 07:58:53;;;;;;;4.65;2.65;;;;;;;;;;4968445;28;20360;-71
2022/09/11 08:01:29;;;;;;;6.28;2.67;;;;;;;;;;4986169;28;20502;-71
2022/09/11 08:03:57;;;;;;;5.75;3.05;;;;;;;;;;4968352;28;20322;-72
2022/09/11 08:06:23;;;;;;;5.72;3.17;;;;;;;;;;4986129;28;20455;-71
2022/09/11 08:08:57;;;;;;;4.55;2.83;;;;;;;;;;4986133;28;20356;-72
2022/09/11 08:11:23;;;;;;;3.67;2.60;;;;;;;;;;4968628;28;20336;-71
2022/09/11 08:13:50;;;;;;;2.75;2.05;;;;;;;;;;5004270;28;20683;-71
2022/09/11 08:16:16;;;;;;;6.00;4.53;;;;;;;;;;4987962;28;20055;-71
2022/09/11 08:18:42;;;;;;;3.78;2.65;;;;;;;;;;4988052;28;20033;-71
2022/09/11 08:21:09;;;;;;;5.97;2.60;;;;;;;;;;5007759;28;20075;-72
2022/09/11 08:23:36;;;;;;;3.78;2.60;;;;;;;;;;4987639;28;20514;-71
2022/09/11 08:26:09;;;;;;;4.95;2.80;;;;;;;;;;4988223;28;20101;-71
2022/09/11 08:28:35;;;;;;;5.43;3.05;;;;;;;;;;4988017;28;20039;-70
2022/09/11 08:31:01;;;;;;;4.82;2.83;;;;;;;;;;4972162;28;20336;-71
2022/09/11 08:33:27;;;;;;;6.13;2.78;;;;;;;;;;5006692;28;20333;-71
2022/09/11 08:35:53;;;;;;;3.53;2.28;;;;;;;;;;5006236;28;20424;-70
2022/09/11 08:38:19;;;;;;;3.67;2.60;;;;;;;;;;4988042;28;20379;-70
2022/09/11 08:40:44;;;;;;;4.43;3.05;;;;;;;;;;4987493;28;20069;-70
2022/09/11 08:43:22;;;;;;;3.50;2.67;;;;;;;;;;4987486;28;20308;-72
2022/09/11 08:45:50;;;;;;;4.43;2.60;;;;;;;;;;4971231;28;20344;-70
2022/09/11 08:48:17;;;;;;;3.50;2.75;;;;;;;;;;4971249;28;20359;-71
2022/09/11 08:50:42;;;;;;;6.95;2.90;;;;;;;;;;5005077;28;20056;-71
2022/09/11 08:53:14;;;;;;;4.45;2.95;;;;;;;;;;5004755;28;20435;-70
2022/09/11 08:55:46;;;;;;;3.60;2.35;;;;;;;;;;4988536;28;20435;-71
2022/09/11 08:58:23;;;;;;;2.97;2.53;;;;;;;;;;4987159;28;20431;-70
2022/09/11 09:01:03;;;;;;;3.75;2.50;;;;;;;;;;5006408;28;20367;-70
2022/09/11 09:03:52;;;;;;;2.45;2.17;;;;;;;;;;5005392;28;20351;-71
2022/09/11 09:06:34;;;;;;;2.75;2.20;;;;;;;;;;4987437;28;20032;-71
2022/09/11 09:09:21;;;;;;;2.90;2.30;;;;;;;;;;4987588;28;20459;-70
2022/09/11 09:12:19;;;;;;;3.88;2.28;;;;;;;;;;4987451;28;20332;-72
2022/09/11 09:14:57;;;;;;;4.18;2.40;;;;;;;;;;4986735;28;20358;-71
2022/09/11 09:17:45;;;;;;;2.67;2.15;;;;;;;;;;4986719;28;20505;-72
2022/09/11 09:20:21;;;;;;;6.15;2.10;;;;;;;;;;5004784;28;20395;-72
2022/09/11 09:23:01;;;;;;;3.75;2.15;;;;;;;;;;4986867;28;20439;-72
2022/09/11 09:25:26;;;;;;;3.92;2.25;;;;;;;;;;4986881;28;20597;-72
2022/09/11 09:28:11;;;;;;;3.00;2.10;;;;;;;;;;4986530;28;20431;-71
2022/09/11 09:30:45;;;;;;;2.22;1.88;;;;;;;;;;5004399;28;20336;-71
2022/09/11 09:33:30;;;;;;;5.28;1.77;;;;;;;;;;4986036;28;20320;-72
2022/09/11 09:35:56;;;;;;;4.38;2.13;;;;;;;;;;5004548;28;20450;-72
2022/09/11 09:38:26;;;;;;;4.72;2.28;;;;;;;;;;4986569;28;20443;-71
2022/09/11 09:41:02;;;;;;;4.20;2.05;;;;;;;;;;4969795;28;20571;-72
2022/09/11 09:43:46;;;;;;;2.75;1.90;;;;;;;;;;4986900;28;20051;-71
2022/09/11 09:46:22;;;;;;;3.15;2.08;;;;;;;;;;5004298;28;20383;-72
2022/09/11 09:48:48;;;;;;;2.97;2.22;;;;;;;;;;4986074;28;20055;-72
2022/09/11 09:51:13;;;;;;;3.55;2.15;;;;;;;;;;5004485;28;20463;-71
2022/09/11 09:53:44;;;;;;;2.88;1.95;;;;;;;;;;5004018;28;20411;-72
2022/09/11 09:56:12;;;;;;;2.53;1.55;;;;;;;;;;5004704;28;20431;-71
2022/09/11 09:58:53;;;;;;;2.08;1.60;;;;;;;;;;4985798;28;20398;-71
2022/09/11 10:01:42;;;;;;;3.17;1.83;;;;;;;;;;5003581;28;20466;-71
2022/09/11 10:04:23;;;;;;;3.33;2.10;;;;;;;;;;5004602;28;20435;-72
2022/09/11 10:06:51;;;;;;;3.33;1.80;;;;;;;;;;4985793;28;20633;-72
2022/09/11 10:09:28;;;;;;;2.33;1.70;;;;;;;;;;4985963;28;20546;-72
2022/09/11 10:12:06;;;;;;;5.13;1.95;;;;;;;;;;4985394;28;20417;-72
2022/09/11 10:14:36;;;;;;;3.25;1.92;;;;;;;;;;5003518;28;20658;-72
2022/09/11 10:17:01;;;;;;;3.15;1.90;;;;;;;;;;4985024;28;20206;-75
2022/09/11 10:19:41;;;;;;;3.00;1.90;;;;;;;;;;4985482;28;20141;-73
2022/09/11 10:22:26;;;;;;;4.97;2.28;;;;;;;;;;4986432;28;20332;-76
2022/09/11 10:25:04;;;;;;;5.28;2.35;;;;;;;;;;4985603;28;20431;-72
2022/09/11 10:27:34;;;;;;;2.55;1.95;;;;;;;;;;4985282;28;20089;-73
2022/09/11 10:30:01;;;;;;;3.63;2.35;;;;;;;;;;4985441;28;20414;-72
2022/09/11 10:32:27;;;;;;;2.85;1.90;;;;;;;;;;5003361;28;20025;-72
2022/09/11 10:34:54;;;;;;;1.98;1.60;;;;;;;;;;5003535;28;20536;-72
2022/09/11 10:37:23;;;;;;;2.60;1.85;;;;;;;;;;4985913;28;20043;-72
2022/09/11 10:39:49;;;;;;;3.58;2.50;;;;;;;;;;4985343;28;20458;-72
2022/09/11 10:42:21;;;;;;;3.45;2.42;;;;;;;;;;4984974;28;20428;-72
2022/09/11 10:44:47;;;;;;;3.47;2.00;;;;;;;;;;4986105;28;20517;-72
2022/09/11 10:47:21;;;;;;;6.18;2.58;;;;;;;;;;4985139;28;20370;-72
2022/09/11 10:49:48;;;;;;;2.70;1.92;;;;;;;;;;4985250;28;20435;-72
2022/09/11 10:52:15;;;;;;;3.08;2.00;;;;;;;;;;4984800;28;20055;-72
2022/09/11 10:55:06;;;;;;;2.72;2.08;;;;;;;;;;5003272;28;20025;-72
2022/09/11 10:57:40;;;;;;;2.70;1.95;;;;;;;;;;4968312;28;20483;-73
2022/09/11 11:00:13;;;;;;;3.58;2.15;;;;;;;;;;4986075;28;20443;-72
2022/09/11 11:02:42;;;;;;;3.67;2.05;;;;;;;;;;4985672;28;20435;-71
2022/09/11 11:05:27;;;;;;;2.67;1.90;;;;;;;;;;4985844;28;20441;-71
2022/09/11 11:08:32;;;;;;;2.85;2.35;;;;;;;;;;4985435;28;20423;-71
2022/09/11 11:11:13;;;;;;;6.00;2.17;;;;;;;;;;4917507;28;20448;-71
2022/09/11 11:13:38;;;;;;;3.03;2.20;;;;;;;;;;5002143;28;20482;-72
2022/09/11 11:16:20;;;;;;;3.50;2.20;;;;;;;;;;5003177;28;20413;-71
2022/09/11 11:19:01;;;;;;;3.58;2.17;;;;;;;;;;4985225;28;20423;-72
2022/09/11 11:21:56;;;;;;;3.38;2.33;;;;;;;;;;4984833;28;20386;-71
2022/09/11 11:24:45;;;;;;;3.15;2.00;;;;;;;;;;4984915;28;20731;-71
2022/09/11 11:27:28;;;;;;;3.92;2.00;;;;;;;;;;5003418;28;20327;-71
2022/09/11 11:30:13;;;;;;;3.72;2.15;;;;;;;;;;5006591;28;20443;-71
2022/09/11 11:33:13;;;;;;;3.17;1.90;;;;;;;;;;5007792;28;20399;-71
2022/09/11 11:36:21;;;;;;;2.83;1.77;;;;;;;;;;5006353;28;20439;-71
2022/09/11 11:38:59;;;;;;;2.72;1.73;;;;;;;;;;4959981;28;20075;-71
2022/09/11 11:41:29;;;;;;;2.55;2.05;;;;;;;;;;4989186;28;20451;-71
2022/09/11 11:43:54;;;;;;;3.50;2.22;;;;;;;;;;4989333;28;20574;-71
2022/09/11 11:46:25;;;;;;;2.45;1.70;;;;;;;;;;5006259;28;20479;-71
2022/09/11 11:48:52;;;;;;;4.20;2.08;;;;;;;;;;5006130;28;20536;-70
2022/09/11 11:51:20;;;;;;;3.30;1.98;;;;;;;;;;4988522;28;20059;-70
2022/09/11 11:53:54;;;;;;;3.00;2.03;;;;;;;;;;4988078;28;20432;-71
2022/09/11 11:56:27;;;;;;;2.72;1.92;;;;;;;;;;5005330;28;20389;-70
2022/09/11 11:59:06;;;;;;;2.90;1.85;;;;;;;;;;5004627;28;20358;-70
2022/09/11 12:01:41;;;;;;;6.20;1.73;;;;;;;;;;4987159;28;20051;-70
2022/09/11 12:04:13;;;;;;;3.63;1.75;;;;;;;;;;4987712;28;20466;-70
2022/09/11 12:06:39;;;;;;;3.17;1.90;;;;;;;;;;5006080;28;20350;-70
2022/09/11 12:09:07;;;;;;;2.22;1.83;;;;;;;;;;5005915;28;20017;-70
2022/09/11 12:11:32;;;;;;;1.98;1.77;;;;;;;;;;4988126;28;20474;-69
2022/09/11 12:13:58;;;;;;;2.00;1.65;;;;;;;;;;4969936;28;20483;-70
2022/09/11 12:16:30;;;;;;;4.65;1.80;;;;;;;;;;4986335;28;20120;-70
2022/09/11 12:19:06;;;;;;;2.42;2.05;;;;;;;;;;4968517;28;20348;-70
2022/09/11 12:21:34;;;;;;;2.78;1.80;;;;;;;;;;4986094;28;20718;-70
2022/09/11 12:24:02;;;;;;;6.20;1.75;;;;;;;;;;4967611;28;20343;-70
2022/09/11 12:26:30;;;;;;;3.28;1.85;;;;;;;;;;4986359;28;20375;-71
2022/09/11 12:29:11;;;;;;;3.03;2.05;;;;;;;;;;4968442;28;20424;-71
2022/09/11 12:31:49;;;;;;;1.83;1.63;;;;;;;;;;4986637;28;20472;-72
2022/09/11 12:34:22;;;;;;;2.67;2.03;;;;;;;;;;4985985;28;20086;-71
2022/09/11 12:36:59;;;;;;;4.97;2.00;;;;;;;;;;4985776;28;20470;-71
2022/09/11 12:39:38;;;;;;;7.03;1.90;;;;;;;;;;4967663;28;20424;-71
2022/09/11 12:42:22;;;;;;;;;;;;;;;;;;4967108;28;20440;-72
2022/09/11 12:44:47;;;;;;;2.60;2.00;;;;;;;;;;4983784;28;20336;-72
2022/09/11 12:47:23;;;;;;;2.67;1.77;;;;;;;;;;4983971;28;20407;-72
2022/09/11 12:49:55;;;;;;;2.22;1.70;;;;;;;;;;4967108;28;20475;-72
2022/09/11 12:52:26;;;;;;;3.10;2.08;;;;;;;;;;4986486;28;20354;-71
2022/09/11 12:54:53;;;;;;;8.85;2.00;;;;;;;;;;4967235;28;20091;-71
2022/09/11 12:57:34;;;;;;;3.13;2.00;;;;;;;;;;4985524;28;20367;-72
2022/09/11 13:00:02;;;;;;;4.45;2.30;;;;;;;;;;4985262;28;20371;-70
2022/09/11 13:02:40;;;;;;;3.13;2.10;;;;;;;;;;4967133;28;20513;-72
2022/09/11 13:05:19;;;;;;;2.87;2.07;;;;;;;;;;4985074;28;20418;-71
2022/09/11 13:07:46;;;;;;;2.70;2.05;;;;;;;;;;4966951;28;20653;-71
2022/09/11 13:10:35;;;;;;;3.15;2.17;;;;;;;;;;4967278;28;20689;-71
2022/09/11 13:13:02;;;;;;;6.60;2.75;;;;;;;;;;4966586;28;20406;-71
2022/09/11 13:15:35;;;;;;;2.58;1.92;;;;;;;;;;4967020;28;20455;-70
2022/09/11 13:18:14;;;;;;;2.97;1.80;;;;;;;;;;4984914;28;20507;-70
2022/09/11 13:20:40;;;;;;;3.60;2.47;;;;;;;;;;4967289;28;20528;-71
2022/09/11 13:23:17;;;;;;;3.25;2.20;;;;;;;;;;4966958;28;20494;-71
2022/09/11 13:25:42;;;;;;;2.85;1.88;;;;;;;;;;4967197;28;20474;-70
2022/09/11 13:28:10;;;;;;;2.33;1.63;;;;;;;;;;4966645;28;20111;-70
2022/09/11 13:30:51;;;;;;;2.35;1.88;;;;;;;;;;4966865;28;20106;-71
2022/09/11 13:33:21;;;;;;;2.20;1.67;;;;;;;;;;4966536;28;20399;-70
2022/09/11 13:35:46;;;;;;;4.68;1.60;;;;;;;;;;4984326;28;20395;-70
2022/09/11 13:38:19;;;;;;;2.92;1.40;;;;;;;;;;4966651;28;20510;-71
2022/09/11 13:41:14;;;;;;;4.65;1.98;;;;;;;;;;4966292;28;20387;-71
2022/09/11 13:43:47;;;;;;;1.70;1.30;;;;;;;;;;4762938;28;5001020;-69
2022/09/11 13:46:15;;;;;;;4.68;1.80;;;;;;;;;;4985481;28;20463;-70
2022/09/11 13:48:45;;;;;;;1.60;1.50;;;;;;;;;;4984259;28;20476;-70
2022/09/11 13:51:12;;;;;;;2.17;1.77;;;;;;;;;;4984067;28;20466;-70
2022/09/11 13:53:38;;;;;;;2.75;2.03;;;;;;;;;;4984126;28;20444;-70
2022/09/11 13:56:03;;;;;;;2.08;1.50;;;;;;;;;;4984118;28;20387;-70
2022/09/11 13:58:34;;;;;;;3.60;1.38;;;;;;;;;;4984349;28;20351;-71
2022/09/11 14:01:13;;;;;;;2.20;1.50;;;;;;;;;;4966322;28;20037;-71
2022/09/11 14:03:44;;;;;;;1.88;1.65;;;;;;;;;;4966246;28;20420;-72
2022/09/11 14:06:14;;;;;;;2.65;1.83;;;;;;;;;;4966877;28;20451;-72
2022/09/11 14:08:48;;;;;;;2.00;1.60;;;;;;;;;;4966217;28;20382;-73
2022/09/11 14:11:28;;;;;;;3.22;2.28;;;;;;;;;;4983931;28;20061;-71
2022/09/11 14:13:57;;;;;;;3.40;1.80;;;;;;;;;;4999878;28;20402;-72
2022/09/11 14:16:32;;;;;;;2.15;1.65;;;;;;;;;;5001993;28;20354;-71
2022/09/11 14:19:06;;;;;;;3.22;2.47;;;;;;;;;;5003322;28;20115;-70
2022/09/11 14:21:37;;;;;;;5.20;2.65;;;;;;;;;;5003361;28;20462;-71
2022/09/11 14:24:24;;;;;;;4.55;2.70;;;;;;;;;;5002155;28;20335;-71
2022/09/11 14:26:50;;;;;;;3.45;2.47;;;;;;;;;;4989815;28;20356;-70
2022/09/11 14:29:30;;;;;;;6.35;2.60;;;;;;;;;;5003444;28;20435;-70
2022/09/11 14:32:31;;;;;;;3.75;2.05;;;;;;;;;;5003173;28;20467;-70
2022/09/11 14:34:57;;;;;;;3.78;2.20;;;;;;;;;;5002471;28;20462;-70
2022/09/11 14:37:24;;;;;;;3.53;2.45;;;;;;;;;;5002774;28;20047;-70
2022/09/11 14:39:58;;;;;;;5.55;2.67;;;;;;;;;;5003173;28;20359;-70
2022/09/11 14:42:28;;;;;;;4.05;2.50;;;;;;;;;;5004166;28;20091;-70
2022/09/11 14:44:53;;;;;;;3.65;2.13;;;;;;;;;;5001844;28;20097;-70
2022/09/11 14:47:21;;;;;;;5.38;2.10;;;;;;;;;;5003652;28;20434;-70
2022/09/11 14:49:50;;;;;;;5.10;2.27;;;;;;;;;;5003401;28;20363;-70
2022/09/11 14:52:19;;;;;;;2.42;1.80;;;;;;;;;;5002026;28;20716;-70
2022/09/11 14:54:45;;;;;;;2.63;1.95;;;;;;;;;;5001681;28;20543;-70
2022/09/11 14:57:14;;;;;;;4.65;2.08;;;;;;;;;;5002970;28;20514;-70
2022/09/11 14:59:40;;;;;;;4.32;2.45;;;;;;;;;;4984890;28;20422;-70
2022/09/11 15:02:18;;;;;;;3.20;2.20;;;;;;;;;;5002914;28;20321;-70